createdAt,value
2019-03-29T00:02:26.808Z,3.76
2019-03-29T00:04:57.112Z,3.83
2019-03-29T00:07:38.823Z,3.84
2019-03-29T00:10:02.091Z,3.88
2019-03-29T00:12:32.206Z,3.78
2019-03-29T00:15:02.358Z,3.82
2019-03-29T00:17:32.806Z,3.78
2019-03-29T00:20:06.040Z,3.67
2019-03-29T00:22:34.812Z,3.69
2019-03-29T00:25:05.473Z,3.66
2019-03-29T00:27:35.892Z,3.58
2019-03-29T00:30:06.446Z,3.44
2019-03-29T00:32:36.437Z,3.33
2019-03-29T00:35:08.045Z,3.19
2019-03-29T00:37:38.333Z,3.09
2019-03-29T00:40:09.310Z,3.17
2019-03-29T00:42:39.730Z,3.12
2019-03-29T00:45:11.066Z,3.03
2019-03-29T00:47:41.168Z,2.95
2019-03-29T00:50:11.093Z,2.97
2019-03-29T00:52:41.126Z,2.87
2019-03-29T00:55:11.479Z,3.05
2019-03-29T00:57:42.401Z,3.15
2019-03-29T01:00:13.812Z,3.21
2019-03-29T01:02:44.206Z,3.37
2019-03-29T01:05:15.607Z,3.41
2019-03-29T01:07:46.983Z,3.32
2019-03-29T01:10:16.955Z,3.37
2019-03-29T01:12:47.397Z,3.45
2019-03-29T01:15:17.728Z,3.57
2019-03-29T01:17:47.726Z,3.50
2019-03-29T01:20:17.820Z,3.51
2019-03-29T01:22:48.966Z,3.49
2019-03-29T01:25:19.272Z,3.47
2019-03-29T01:27:49.201Z,3.51
2019-03-29T01:30:19.391Z,3.44
2019-03-29T01:32:50.636Z,3.42
2019-03-29T01:35:22.595Z,3.32
2019-03-29T01:37:53.286Z,3.29
2019-03-29T01:40:23.699Z,3.29
2019-03-29T01:42:54.008Z,3.20
2019-03-29T01:45:24.436Z,3.15
2019-03-29T01:47:56.130Z,3.06
2019-03-29T01:50:29.139Z,3.04
2019-03-29T01:52:59.459Z,3.04
2019-03-29T01:55:29.822Z,2.98
2019-03-29T01:58:00.298Z,2.96
2019-03-29T02:00:36.089Z,2.93
2019-03-29T02:03:08.167Z,2.84
2019-03-29T02:05:38.125Z,2.82
2019-03-29T02:08:08.697Z,2.79
2019-03-29T02:10:38.587Z,2.77
2019-03-29T02:13:08.521Z,2.77
2019-03-29T02:15:38.461Z,2.74
2019-03-29T02:18:08.538Z,2.70
2019-03-29T02:20:38.541Z,2.73
2019-03-29T02:23:09.008Z,2.70
2019-03-29T02:25:39.410Z,2.67
2019-03-29T02:28:09.468Z,2.65
2019-03-29T02:30:39.771Z,2.64
2019-03-29T02:33:10.758Z,2.67
2019-03-29T02:35:42.956Z,2.63
2019-03-29T02:38:13.944Z,2.67
2019-03-29T02:40:45.364Z,2.68
2019-03-29T02:43:15.615Z,2.66
2019-03-29T02:45:45.559Z,2.68
2019-03-29T02:48:16.682Z,2.61
2019-03-29T02:50:47.057Z,2.64
2019-03-29T02:53:17.119Z,2.54
2019-03-29T02:55:47.649Z,2.58
2019-03-29T02:58:17.635Z,2.69
2019-03-29T03:00:48.386Z,2.66
2019-03-29T03:03:18.621Z,2.57
2019-03-29T03:05:48.833Z,2.55
2019-03-29T03:08:19.185Z,2.48
2019-03-29T03:10:49.607Z,2.46
2019-03-29T03:13:20.050Z,2.51
2019-03-29T03:15:50.097Z,2.51
2019-03-29T03:18:20.041Z,2.50
2019-03-29T03:20:50.558Z,2.49
2019-03-29T03:23:21.638Z,2.43
2019-03-29T03:25:52.669Z,2.36
2019-03-29T03:28:22.660Z,2.33
2019-03-29T03:30:52.687Z,2.39
2019-03-29T03:33:23.065Z,2.46
2019-03-29T03:35:53.374Z,2.43
2019-03-29T03:38:23.416Z,2.39
2019-03-29T03:40:53.465Z,2.38
2019-03-29T03:43:23.595Z,2.38
2019-03-29T03:45:53.640Z,2.39
2019-03-29T03:48:23.693Z,2.31
2019-03-29T03:50:53.862Z,2.31
2019-03-29T03:53:23.806Z,2.26
2019-03-29T03:55:55.581Z,2.24
2019-03-29T03:58:26.854Z,2.21
2019-03-29T04:00:59.125Z,2.26
2019-03-29T04:03:29.271Z,2.28
2019-03-29T04:05:59.710Z,2.29
2019-03-29T04:08:30.112Z,2.31
2019-03-29T04:11:00.172Z,2.31
2019-03-29T04:13:30.955Z,2.26
2019-03-29T04:16:00.968Z,2.24
2019-03-29T04:18:30.904Z,2.22
2019-03-29T04:21:01.404Z,2.19
2019-03-29T04:23:32.427Z,2.21
2019-03-29T04:26:02.448Z,2.22
2019-03-29T04:28:32.841Z,2.27
2019-03-29T04:31:02.770Z,2.28
2019-03-29T04:33:35.054Z,2.30
2019-03-29T04:36:05.279Z,2.38
2019-03-29T04:38:35.292Z,2.45
2019-03-29T04:41:07.082Z,2.47
2019-03-29T04:43:38.316Z,2.50
2019-03-29T04:46:09.891Z,2.53
2019-03-29T04:48:41.565Z,2.52
2019-03-29T04:51:13.501Z,2.55
2019-03-29T04:53:43.459Z,2.57
2019-03-29T04:56:13.402Z,2.63
2019-03-29T04:58:43.488Z,2.72
2019-03-29T05:01:17.156Z,2.76
2019-03-29T05:03:45.211Z,2.78
2019-03-29T05:06:15.189Z,2.82
2019-03-29T05:08:45.040Z,2.94
2019-03-29T05:11:16.351Z,2.99
2019-03-29T05:13:46.166Z,3.12
2019-03-29T05:16:16.516Z,3.20
2019-03-29T05:18:46.569Z,3.32
2019-03-29T05:21:17.783Z,3.37
2019-03-29T05:23:47.741Z,3.43
2019-03-29T05:26:17.735Z,3.51
2019-03-29T05:28:47.781Z,3.56
2019-03-29T05:31:19.457Z,3.61
2019-03-29T05:33:49.512Z,3.70
2019-03-29T05:36:19.559Z,3.76
2019-03-29T05:38:50.005Z,3.84
2019-03-29T05:41:20.011Z,3.94
2019-03-29T05:43:50.083Z,3.99
2019-03-29T05:46:20.097Z,4.06
2019-03-29T05:48:50.195Z,4.13
2019-03-29T05:51:20.366Z,4.20
2019-03-29T05:53:50.444Z,4.27
2019-03-29T05:56:20.464Z,4.39
2019-03-29T05:58:50.543Z,4.51
2019-03-29T06:01:23.507Z,4.60
2019-03-29T06:03:53.577Z,4.75
2019-03-29T06:06:23.822Z,4.86
2019-03-29T06:08:53.907Z,4.91
2019-03-29T06:11:23.995Z,4.99
2019-03-29T06:13:53.984Z,5.09
2019-03-29T06:16:38.127Z,5.20
2019-03-29T06:18:56.093Z,5.34
2019-03-29T06:21:26.387Z,5.41
2019-03-29T06:23:56.517Z,5.50
2019-03-29T06:26:26.551Z,5.55
2019-03-29T06:29:01.412Z,5.61
2019-03-29T06:31:31.971Z,5.66
2019-03-29T06:34:01.699Z,5.70
2019-03-29T06:36:33.926Z,5.79
2019-03-29T06:39:10.090Z,5.93
2019-03-29T06:41:45.456Z,6.03
2019-03-29T06:44:15.405Z,6.11
2019-03-29T06:46:45.669Z,6.28
2019-03-29T06:49:15.682Z,6.46
2019-03-29T06:51:45.706Z,6.57
2019-03-29T06:54:15.737Z,6.61
2019-03-29T06:56:45.891Z,6.73
2019-03-29T06:59:15.875Z,6.82
2019-03-29T07:01:46.513Z,6.93
2019-03-29T07:04:16.963Z,7.04
2019-03-29T07:06:46.942Z,7.14
2019-03-29T07:09:16.893Z,7.21
2019-03-29T07:11:46.929Z,7.37
2019-03-29T07:14:17.031Z,7.54
2019-03-29T07:16:47.007Z,7.70
2019-03-29T07:19:17.011Z,7.90
2019-03-29T07:21:47.015Z,8.01
2019-03-29T07:24:17.031Z,8.11
2019-03-29T07:26:47.202Z,8.20
2019-03-29T07:29:17.148Z,8.34
2019-03-29T07:31:47.105Z,8.47
2019-03-29T07:34:17.271Z,8.63
2019-03-29T07:36:47.316Z,8.74
2019-03-29T07:39:17.278Z,8.96
2019-03-29T07:41:47.450Z,9.05
2019-03-29T07:44:17.517Z,9.09
2019-03-29T07:46:47.534Z,9.12
2019-03-29T07:49:17.929Z,9.26
2019-03-29T07:51:48.005Z,9.44
2019-03-29T07:54:18.023Z,9.54
2019-03-29T07:56:48.056Z,9.63
2019-03-29T07:59:18.003Z,9.49
2019-03-29T08:01:47.978Z,9.75
2019-03-29T08:04:21.516Z,9.77
2019-03-29T08:06:49.978Z,9.78
2019-03-29T08:09:22.651Z,9.97
2019-03-29T08:11:51.729Z,10.28
2019-03-29T08:14:21.704Z,10.52
2019-03-29T08:16:51.728Z,10.61
2019-03-29T08:19:21.953Z,10.66
2019-03-29T08:21:51.927Z,10.63
2019-03-29T08:24:21.874Z,10.74
2019-03-29T08:26:51.940Z,10.93
2019-03-29T08:29:21.968Z,11.04
2019-03-29T08:31:55.227Z,11.15
2019-03-29T08:34:23.837Z,11.24
2019-03-29T08:36:53.825Z,11.41
2019-03-29T08:39:28.106Z,11.37
2019-03-29T08:42:00.451Z,11.40
2019-03-29T08:44:27.273Z,11.66
2019-03-29T08:46:57.259Z,11.64
2019-03-29T08:49:27.402Z,11.97
2019-03-29T08:51:57.397Z,11.94
2019-03-29T08:54:27.461Z,12.22
2019-03-29T08:56:57.584Z,12.00
2019-03-29T08:59:27.535Z,11.66
2019-03-29T09:01:57.632Z,11.93
2019-03-29T09:04:27.687Z,12.20
2019-03-29T09:06:57.662Z,12.39
2019-03-29T09:09:27.639Z,12.58
2019-03-29T09:11:57.821Z,12.80
2019-03-29T09:14:31.234Z,12.92
2019-03-29T09:16:59.951Z,12.73
2019-03-29T09:19:30.040Z,12.82
2019-03-29T09:22:00.079Z,13.02
2019-03-29T09:24:30.164Z,12.74
2019-03-29T09:27:00.343Z,12.96
2019-03-29T09:29:30.337Z,13.08
2019-03-29T09:32:00.310Z,13.08
2019-03-29T09:34:30.320Z,12.92
2019-03-29T09:37:00.426Z,13.02
2019-03-29T09:39:30.407Z,12.97
2019-03-29T09:42:00.597Z,12.44
2019-03-29T09:44:30.536Z,12.62
2019-03-29T09:47:00.528Z,13.01
2019-03-29T09:49:30.741Z,13.26
2019-03-29T09:52:00.759Z,13.49
2019-03-29T09:54:30.699Z,13.49
2019-03-29T09:57:00.890Z,13.56
2019-03-29T09:59:30.956Z,13.17
2019-03-29T10:02:01.048Z,13.01
2019-03-29T10:04:31.100Z,13.48
2019-03-29T10:07:01.079Z,13.52
2019-03-29T10:09:31.068Z,13.36
2019-03-29T10:12:01.590Z,13.17
2019-03-29T10:14:33.588Z,13.33
2019-03-29T10:17:04.111Z,13.42
2019-03-29T10:19:34.084Z,13.50
2019-03-29T10:22:04.091Z,13.69
2019-03-29T10:24:34.404Z,14.04
2019-03-29T10:27:04.644Z,14.42
2019-03-29T10:29:35.741Z,14.52
2019-03-29T10:32:09.297Z,14.56
2019-03-29T10:34:37.767Z,14.25
2019-03-29T10:37:07.724Z,14.61
2019-03-29T10:39:37.685Z,14.73
2019-03-29T10:42:07.731Z,14.90
2019-03-29T10:44:38.008Z,15.02
2019-03-29T10:47:08.035Z,14.27
2019-03-29T10:49:38.128Z,13.68
2019-03-29T10:52:08.280Z,13.85
2019-03-29T10:54:39.834Z,14.34
2019-03-29T10:57:09.900Z,14.42
2019-03-29T10:59:40.171Z,14.17
2019-03-29T11:02:10.172Z,14.61
2019-03-29T11:04:40.163Z,15.01
2019-03-29T11:07:10.154Z,15.08
2019-03-29T11:09:40.215Z,15.27
2019-03-29T11:12:10.246Z,15.24
2019-03-29T11:14:40.249Z,15.72
2019-03-29T11:17:10.219Z,15.85
2019-03-29T11:19:40.295Z,16.14
2019-03-29T11:22:10.279Z,16.05
2019-03-29T11:24:40.316Z,15.41
2019-03-29T11:27:10.400Z,15.65
2019-03-29T11:29:40.400Z,15.42
2019-03-29T11:32:10.421Z,15.64
2019-03-29T11:34:40.501Z,15.91
2019-03-29T11:37:10.552Z,15.76
2019-03-29T11:39:40.592Z,14.97
2019-03-29T11:42:10.623Z,15.24
2019-03-29T11:44:40.655Z,15.12
2019-03-29T11:47:10.752Z,14.98
2019-03-29T11:49:40.729Z,14.59
2019-03-29T11:52:10.720Z,14.69
2019-03-29T11:54:40.748Z,14.70
2019-03-29T11:57:12.997Z,15.10
2019-03-29T11:59:42.931Z,15.22
2019-03-29T12:02:12.946Z,14.76
2019-03-29T12:04:43.040Z,15.32
2019-03-29T12:07:13.041Z,15.08
2019-03-29T12:09:43.061Z,14.58
2019-03-29T12:12:13.095Z,14.89
2019-03-29T12:14:43.010Z,14.36
2019-03-29T12:17:13.027Z,14.14
2019-03-29T12:19:43.257Z,14.19
2019-03-29T12:22:13.408Z,14.76
2019-03-29T12:24:43.431Z,15.24
2019-03-29T12:27:13.522Z,15.25
2019-03-29T12:29:43.822Z,15.14
2019-03-29T12:32:13.864Z,15.08
2019-03-29T12:34:43.829Z,15.47
2019-03-29T12:37:13.830Z,15.93
2019-03-29T12:39:43.872Z,15.99
2019-03-29T12:42:13.913Z,15.95
2019-03-29T12:44:43.858Z,15.69
2019-03-29T12:47:13.931Z,14.84
2019-03-29T12:49:43.994Z,14.84
2019-03-29T12:52:14.020Z,15.31
2019-03-29T12:54:43.916Z,15.27
2019-03-29T12:57:14.126Z,15.58
2019-03-29T12:59:44.137Z,16.16
2019-03-29T13:02:14.123Z,15.12
2019-03-29T13:04:46.912Z,14.84
2019-03-29T13:07:15.986Z,14.74
2019-03-29T13:09:45.998Z,14.38
2019-03-29T13:12:16.141Z,14.26
2019-03-29T13:14:46.102Z,14.50
2019-03-29T13:17:16.664Z,14.94
2019-03-29T13:19:46.780Z,14.93
2019-03-29T13:22:16.948Z,15.19
2019-03-29T13:24:46.995Z,15.42
2019-03-29T13:27:17.268Z,15.29
2019-03-29T13:29:47.278Z,15.68
2019-03-29T13:32:17.351Z,16.06
2019-03-29T13:34:51.080Z,16.25
2019-03-29T13:37:19.175Z,16.03
2019-03-29T13:39:49.121Z,16.13
2019-03-29T13:42:19.333Z,16.29
2019-03-29T13:44:49.384Z,16.10
2019-03-29T13:47:19.366Z,16.27
2019-03-29T13:49:49.477Z,15.63
2019-03-29T13:52:19.482Z,15.22
2019-03-29T13:54:49.542Z,15.28
2019-03-29T13:57:19.719Z,15.34
2019-03-29T13:59:49.708Z,15.69
2019-03-29T14:02:19.679Z,15.74
2019-03-29T14:04:49.785Z,15.01
2019-03-29T14:07:19.772Z,14.97
2019-03-29T14:09:49.787Z,14.80
2019-03-29T14:12:19.981Z,15.18
2019-03-29T14:14:49.937Z,15.05
2019-03-29T14:17:19.935Z,15.04
2019-03-29T14:19:50.065Z,15.32
2019-03-29T14:22:20.047Z,15.64
2019-03-29T14:24:49.990Z,15.77
2019-03-29T14:27:20.192Z,15.78
2019-03-29T14:30:03.201Z,15.91
2019-03-29T14:32:21.946Z,15.74
2019-03-29T14:34:52.033Z,15.71
2019-03-29T14:37:22.018Z,15.53
2019-03-29T14:39:52.060Z,15.48
2019-03-29T14:42:22.078Z,15.24
2019-03-29T14:44:53.325Z,15.16
2019-03-29T14:47:23.366Z,15.33
2019-03-29T14:49:53.533Z,15.45
2019-03-29T14:52:23.571Z,15.02
2019-03-29T14:54:53.581Z,15.12
2019-03-29T14:57:23.634Z,15.34
2019-03-29T14:59:54.591Z,15.12
2019-03-29T15:02:24.669Z,14.46
2019-03-29T15:04:54.773Z,14.50
2019-03-29T15:07:24.759Z,14.25
2019-03-29T15:09:57.570Z,13.77
2019-03-29T15:12:27.689Z,13.65
2019-03-29T15:15:05.990Z,13.75
2019-03-29T15:17:29.630Z,13.79
2019-03-29T15:19:59.710Z,14.01
2019-03-29T15:22:32.910Z,14.16
2019-03-29T15:25:01.621Z,13.90
2019-03-29T15:27:31.796Z,14.16
2019-03-29T15:30:01.780Z,13.79
2019-03-29T15:32:31.915Z,13.76
2019-03-29T15:35:02.022Z,13.75
2019-03-29T15:37:32.017Z,13.62
2019-03-29T15:40:01.948Z,13.54
2019-03-29T15:42:31.971Z,13.48
2019-03-29T15:45:02.014Z,13.57
2019-03-29T15:47:32.012Z,13.41
2019-03-29T15:50:02.028Z,13.35
2019-03-29T15:52:32.575Z,13.20
2019-03-29T15:55:02.650Z,13.21
2019-03-29T15:57:32.692Z,13.15
2019-03-29T16:00:02.665Z,13.14
2019-03-29T16:02:32.660Z,12.98
2019-03-29T16:05:02.885Z,12.88
2019-03-29T16:07:34.955Z,12.79
2019-03-29T16:10:04.761Z,12.69
2019-03-29T16:12:35.151Z,12.64
2019-03-29T16:15:05.938Z,12.63
2019-03-29T16:17:35.927Z,12.63
2019-03-29T16:20:06.359Z,12.55
2019-03-29T16:22:36.507Z,12.58
2019-03-29T16:25:08.225Z,12.49
2019-03-29T16:27:38.437Z,12.51
2019-03-29T16:30:11.751Z,12.34
2019-03-29T16:32:41.698Z,12.34
2019-03-29T16:35:11.722Z,12.33
2019-03-29T16:37:41.714Z,12.27
2019-03-29T16:40:12.348Z,12.24
2019-03-29T16:42:42.621Z,12.11
2019-03-29T16:45:12.579Z,12.01
2019-03-29T16:47:43.166Z,12.01
2019-03-29T16:50:15.031Z,11.94
2019-03-29T16:52:45.289Z,11.96
2019-03-29T16:55:15.325Z,11.84
2019-03-29T16:57:45.331Z,11.84
2019-03-29T17:00:15.255Z,11.75
2019-03-29T17:02:45.231Z,11.74
2019-03-29T17:05:15.383Z,11.61
2019-03-29T17:07:45.350Z,11.42
2019-03-29T17:10:15.686Z,11.37
2019-03-29T17:12:52.195Z,11.28
2019-03-29T17:15:22.726Z,11.31
2019-03-29T17:17:52.956Z,11.21
2019-03-29T17:20:22.976Z,11.17
2019-03-29T17:22:53.516Z,11.10
2019-03-29T17:25:23.919Z,11.00
2019-03-29T17:27:54.427Z,10.96
2019-03-29T17:30:43.883Z,10.89
2019-03-29T17:33:13.941Z,10.75
2019-03-29T17:35:44.517Z,10.71
2019-03-29T17:38:14.723Z,10.68
2019-03-29T17:40:45.370Z,10.63
2019-03-29T17:43:15.339Z,10.59
2019-03-29T17:45:45.497Z,10.51
2019-03-29T17:48:15.521Z,10.46
2019-03-29T17:50:45.556Z,10.38
2019-03-29T17:53:15.639Z,10.39
2019-03-29T17:55:46.133Z,10.26
2019-03-29T17:58:16.501Z,10.24
2019-03-29T18:00:46.746Z,10.24
2019-03-29T18:03:17.095Z,10.17
2019-03-29T18:05:47.012Z,10.03
2019-03-29T18:08:17.108Z,10.04
2019-03-29T18:10:47.142Z,10.01
2019-03-29T18:13:17.157Z,9.98
2019-03-29T18:15:47.193Z,9.91
2019-03-29T18:18:18.053Z,9.77
2019-03-29T18:20:48.153Z,9.74
2019-03-29T18:23:18.179Z,9.75
2019-03-29T18:25:48.102Z,9.67
2019-03-29T18:28:22.923Z,9.66
2019-03-29T18:30:57.794Z,9.57
2019-03-29T18:33:28.638Z,9.48
2019-03-29T18:35:58.677Z,9.40
2019-03-29T18:38:33.881Z,9.23
2019-03-29T18:41:09.921Z,9.07
2019-03-29T18:43:40.400Z,8.99
2019-03-29T18:46:10.339Z,8.76
2019-03-29T18:48:40.322Z,8.63
2019-03-29T18:51:10.467Z,8.56
2019-03-29T18:53:40.444Z,8.47
2019-03-29T18:56:10.519Z,8.40
2019-03-29T18:58:40.724Z,8.40
2019-03-29T19:01:10.664Z,8.29
2019-03-29T19:03:41.106Z,8.24
2019-03-29T19:06:11.337Z,8.17
2019-03-29T19:08:41.294Z,8.15
2019-03-29T19:11:11.907Z,8.21
2019-03-29T19:13:42.605Z,8.28
2019-03-29T19:16:12.630Z,8.16
2019-03-29T19:18:42.607Z,8.22
2019-03-29T19:21:12.558Z,8.09
2019-03-29T19:23:42.554Z,7.99
2019-03-29T19:26:12.584Z,7.95
2019-03-29T19:28:42.647Z,7.88
2019-03-29T19:31:12.624Z,7.79
2019-03-29T19:33:43.929Z,7.73
2019-03-29T19:36:14.302Z,7.67
2019-03-29T19:38:44.318Z,7.62
2019-03-29T19:41:14.404Z,7.59
2019-03-29T19:43:44.420Z,7.57
2019-03-29T19:46:14.358Z,7.56
2019-03-29T19:48:44.888Z,7.54
2019-03-29T19:51:15.019Z,7.51
2019-03-29T19:53:44.988Z,7.45
2019-03-29T19:56:14.906Z,7.40
2019-03-29T19:58:44.940Z,7.34
2019-03-29T20:01:14.963Z,7.34
2019-03-29T20:03:44.949Z,7.27
2019-03-29T20:06:14.936Z,7.27
2019-03-29T20:08:44.884Z,7.26
2019-03-29T20:11:14.846Z,7.20
2019-03-29T20:13:44.894Z,7.19
2019-03-29T20:16:14.998Z,7.13
2019-03-29T20:18:44.958Z,7.12
2019-03-29T20:21:14.972Z,7.24
2019-03-29T20:23:44.955Z,7.21
2019-03-29T20:26:14.966Z,7.22
2019-03-29T20:28:45.144Z,7.35
2019-03-29T20:31:15.114Z,7.40
2019-03-29T20:33:45.205Z,7.60
2019-03-29T20:36:22.761Z,7.85
2019-03-29T20:38:47.211Z,8.00
2019-03-29T20:41:17.178Z,8.00
2019-03-29T20:43:47.445Z,7.96
2019-03-29T20:46:17.412Z,7.87
2019-03-29T20:48:47.440Z,7.87
2019-03-29T20:51:17.464Z,7.82
2019-03-29T20:53:47.467Z,7.78
2019-03-29T20:56:17.390Z,7.58
2019-03-29T20:58:47.600Z,7.63
2019-03-29T21:01:17.622Z,7.65
2019-03-29T21:03:47.597Z,7.61
2019-03-29T21:06:17.569Z,7.56
2019-03-29T21:08:47.580Z,7.48
2019-03-29T21:11:18.936Z,7.38
2019-03-29T21:13:49.377Z,7.41
2019-03-29T21:16:19.432Z,7.41
2019-03-29T21:18:50.913Z,7.32
2019-03-29T21:21:21.009Z,7.28
2019-03-29T21:23:51.013Z,7.22
2019-03-29T21:26:20.938Z,7.14
2019-03-29T21:28:52.896Z,7.08
2019-03-29T21:31:22.747Z,7.05
2019-03-29T21:33:52.742Z,6.96
2019-03-29T21:36:22.996Z,6.86
2019-03-29T21:38:52.978Z,6.77
2019-03-29T21:41:22.918Z,6.81
2019-03-29T21:43:52.946Z,6.67
2019-03-29T21:46:23.080Z,6.61
2019-03-29T21:48:53.087Z,6.55
2019-03-29T21:51:23.076Z,6.52
2019-03-29T21:53:53.066Z,6.47
2019-03-29T21:56:23.105Z,6.45
2019-03-29T21:58:53.143Z,6.36
2019-03-29T22:01:23.116Z,6.36
2019-03-29T22:03:53.067Z,6.35
2019-03-29T22:06:23.133Z,6.26
2019-03-29T22:08:53.430Z,6.23
2019-03-29T22:11:23.559Z,6.23
2019-03-29T22:13:53.604Z,6.22
2019-03-29T22:16:23.542Z,6.26
2019-03-29T22:18:53.528Z,6.28
2019-03-29T22:21:23.595Z,6.32
2019-03-29T22:23:53.585Z,6.25
2019-03-29T22:26:23.537Z,6.19
2019-03-29T22:28:55.610Z,6.15
2019-03-29T22:31:25.683Z,6.17
2019-03-29T22:33:55.677Z,6.16
2019-03-29T22:36:27.139Z,6.14
2019-03-29T22:38:57.112Z,6.11
2019-03-29T22:41:27.132Z,6.14
2019-03-29T22:43:57.188Z,6.08
2019-03-29T22:46:27.109Z,6.05
2019-03-29T22:48:57.106Z,6.01
2019-03-29T22:51:27.140Z,5.98
2019-03-29T22:53:57.118Z,6.00
2019-03-29T22:56:27.153Z,6.09
2019-03-29T22:58:57.388Z,6.01
2019-03-29T23:01:28.553Z,5.97
2019-03-29T23:03:58.548Z,5.92
2019-03-29T23:06:28.627Z,5.92
2019-03-29T23:08:58.590Z,5.97
2019-03-29T23:11:28.520Z,5.84
2019-03-29T23:13:58.543Z,5.78
2019-03-29T23:16:30.422Z,5.69
2019-03-29T23:19:06.306Z,5.69
2019-03-29T23:21:31.941Z,5.72
2019-03-29T23:24:01.932Z,5.83
2019-03-29T23:26:31.949Z,5.77
2019-03-29T23:29:02.095Z,5.83
2019-03-29T23:31:32.025Z,5.94
2019-03-29T23:34:02.593Z,6.00
2019-03-29T23:36:32.836Z,5.97
2019-03-29T23:39:02.893Z,5.98
2019-03-29T23:41:32.826Z,6.01
2019-03-29T23:44:02.864Z,5.97
2019-03-29T23:46:32.904Z,5.96
2019-03-29T23:49:02.903Z,5.92
2019-03-29T23:51:33.050Z,5.87
2019-03-29T23:54:03.031Z,5.84
2019-03-29T23:56:33.044Z,5.77
2019-03-29T23:59:03.063Z,5.76
